createdAt,value
2022-12-03T00:02:14.535Z,23.75
2022-12-03T00:04:41.324Z,24.08
2022-12-03T00:07:07.990Z,24.55
2022-12-03T00:09:34.804Z,23.60
2022-12-03T00:12:01.736Z,22.20
2022-12-03T00:14:28.339Z,22.88
2022-12-03T00:16:55.025Z,24.05
2022-12-03T00:19:21.692Z,23.70
2022-12-03T00:21:49.475Z,24.42
2022-12-03T00:24:17.811Z,23.27
2022-12-03T00:26:44.499Z,22.85
2022-12-03T00:29:11.551Z,24.08
2022-12-03T00:31:38.255Z,24.33
2022-12-03T00:34:05.062Z,28.23
2022-12-03T00:36:31.731Z,25.08
2022-12-03T00:38:58.396Z,24.77
2022-12-03T00:41:25.166Z,26.02
2022-12-03T00:43:51.827Z,25.77
2022-12-03T00:46:21.573Z,24.27
2022-12-03T00:51:15.181Z,25.10
2022-12-03T00:53:41.874Z,25.73
2022-12-03T00:56:08.810Z,26.63
2022-12-03T00:58:35.433Z,27.42
2022-12-03T01:01:02.098Z,26.98
2022-12-03T01:03:28.857Z,27.40
2022-12-03T01:05:55.528Z,26.02
2022-12-03T01:08:22.269Z,26.30
2022-12-03T01:10:48.941Z,26.83
2022-12-03T01:13:15.670Z,27.08
2022-12-03T01:15:42.390Z,26.88
2022-12-03T01:18:09.275Z,26.83
2022-12-03T01:20:36.560Z,26.63
2022-12-03T01:23:03.294Z,25.77
2022-12-03T01:25:30.085Z,24.67
2022-12-03T01:27:56.925Z,24.63
2022-12-03T01:30:23.593Z,23.08
2022-12-03T01:32:50.383Z,23.65
2022-12-03T01:35:17.161Z,23.35
2022-12-03T01:37:43.874Z,23.63
2022-12-03T01:40:16.110Z,21.83
2022-12-03T01:42:43.015Z,24.08
2022-12-03T01:45:21.448Z,22.88
2022-12-03T01:47:48.442Z,22.27
2022-12-03T01:50:27.355Z,23.40
2022-12-03T01:52:56.756Z,22.77
2022-12-03T01:55:25.187Z,22.65
2022-12-03T01:57:55.691Z,24.52
2022-12-03T02:00:24.588Z,24.60
2022-12-03T02:03:01.141Z,21.73
2022-12-03T02:05:30.077Z,22.95
2022-12-03T02:07:57.954Z,23.75
2022-12-03T02:10:32.673Z,21.08
2022-12-03T02:13:03.166Z,22.45
2022-12-03T02:15:29.925Z,23.50
2022-12-03T02:17:57.767Z,21.98
2022-12-03T02:20:24.699Z,21.42
2022-12-03T02:23:04.486Z,22.05
2022-12-03T02:25:34.727Z,22.75
2022-12-03T02:28:03.134Z,21.85
2022-12-03T02:30:31.538Z,22.38
2022-12-03T02:32:59.268Z,21.45
2022-12-03T02:35:33.576Z,21.65
2022-12-03T02:38:08.248Z,20.95
2022-12-03T02:40:35.256Z,20.67
2022-12-03T02:43:03.489Z,21.55
2022-12-03T02:45:34.397Z,22.52
2022-12-03T02:48:06.266Z,20.42
2022-12-03T02:50:35.992Z,20.90
2022-12-03T02:53:06.835Z,19.77
2022-12-03T02:55:37.061Z,20.00
2022-12-03T02:58:05.207Z,18.60
2022-12-03T03:00:33.076Z,19.30
2022-12-03T03:03:01.355Z,20.48
2022-12-03T03:05:28.462Z,20.08
2022-12-03T03:07:58.303Z,20.75
2022-12-03T03:10:26.406Z,20.30
2022-12-03T03:12:55.118Z,18.38
2022-12-03T03:15:24.690Z,18.38
2022-12-03T03:17:52.181Z,18.92
2022-12-03T03:20:19.331Z,17.95
2022-12-03T03:22:46.364Z,18.58
2022-12-03T03:25:17.314Z,18.48
2022-12-03T03:27:45.052Z,19.35
2022-12-03T03:30:12.515Z,18.83
2022-12-03T03:32:40.423Z,18.88
2022-12-03T03:35:08.668Z,18.48
2022-12-03T03:37:35.569Z,18.02
2022-12-03T03:40:02.540Z,18.80
2022-12-03T03:42:29.350Z,18.45
2022-12-03T03:44:56.331Z,19.38
2022-12-03T03:47:23.922Z,18.70
2022-12-03T03:49:50.956Z,18.48
2022-12-03T03:52:19.234Z,19.05
2022-12-03T03:54:46.139Z,19.10
2022-12-03T03:57:12.982Z,19.50
2022-12-03T03:59:39.695Z,18.83
2022-12-03T04:02:06.998Z,17.52
2022-12-03T04:04:36.764Z,18.67
2022-12-03T04:07:03.539Z,18.58
2022-12-03T04:09:30.170Z,18.05
2022-12-03T04:12:15.726Z,19.13
2022-12-03T04:14:42.469Z,17.92
2022-12-03T04:17:09.086Z,19.17
2022-12-03T04:19:35.826Z,17.50
2022-12-03T04:22:21.107Z,18.90
2022-12-03T04:24:48.447Z,17.95
2022-12-03T04:27:33.912Z,18.98
2022-12-03T04:30:00.721Z,18.10
2022-12-03T04:33:02.647Z,18.13
2022-12-03T04:35:44.512Z,17.73
2022-12-03T04:38:12.947Z,18.95
2022-12-03T04:40:58.553Z,18.77
2022-12-03T04:43:25.495Z,18.38
2022-12-03T04:45:52.187Z,18.63
2022-12-03T04:48:18.940Z,19.48
2022-12-03T04:50:45.619Z,17.88
2022-12-03T04:53:12.434Z,19.20
2022-12-03T04:55:39.134Z,18.08
2022-12-03T04:58:06.174Z,19.40
2022-12-03T05:00:32.848Z,18.58
2022-12-03T05:02:59.548Z,18.45
2022-12-03T05:05:26.367Z,17.50
2022-12-03T05:07:53.061Z,18.92
2022-12-03T05:10:19.749Z,18.35
2022-12-03T05:12:46.385Z,18.90
2022-12-03T05:15:13.031Z,18.73
2022-12-03T05:17:39.726Z,19.42
2022-12-03T05:20:25.519Z,19.73
2022-12-03T05:22:52.219Z,20.35
2022-12-03T05:25:18.887Z,20.08
2022-12-03T05:27:45.639Z,20.63
2022-12-03T05:30:12.630Z,20.77
2022-12-03T05:32:39.418Z,20.77
2022-12-03T05:35:08.215Z,21.92
2022-12-03T05:37:34.881Z,22.08
2022-12-03T05:40:01.733Z,19.80
2022-12-03T05:42:46.703Z,22.08
2022-12-03T05:45:13.413Z,21.23
2022-12-03T05:47:40.045Z,22.52
2022-12-03T05:50:07.553Z,23.58
2022-12-03T05:52:34.258Z,23.83
2022-12-03T05:55:01.123Z,23.75
2022-12-03T05:57:28.717Z,25.58
2022-12-03T05:59:55.342Z,25.48
2022-12-03T06:02:22.275Z,26.98
2022-12-03T06:04:49.237Z,26.60
2022-12-03T06:07:15.892Z,28.00
2022-12-03T06:09:42.668Z,27.60
2022-12-03T06:12:09.282Z,27.85
2022-12-03T06:14:35.982Z,28.73
2022-12-03T06:17:02.968Z,28.20
2022-12-03T06:19:29.650Z,28.70
2022-12-03T06:21:56.338Z,28.83
2022-12-03T06:24:23.015Z,30.30
2022-12-03T06:26:49.648Z,31.48
2022-12-03T06:29:16.295Z,32.53
2022-12-03T06:31:43.013Z,33.22
2022-12-03T06:34:09.778Z,32.45
2022-12-03T06:36:36.549Z,33.95
2022-12-03T06:39:03.603Z,33.63
2022-12-03T06:41:30.299Z,33.28
2022-12-03T06:43:56.939Z,33.33
2022-12-03T06:46:24.023Z,33.00
2022-12-03T06:48:53.119Z,34.30
2022-12-03T06:51:19.799Z,34.80
2022-12-03T06:53:46.523Z,34.60
2022-12-03T06:56:13.193Z,33.35
2022-12-03T06:58:39.876Z,33.40
2022-12-03T07:01:06.695Z,33.00
2022-12-03T07:03:33.366Z,34.00
2022-12-03T07:06:00.099Z,34.47
2022-12-03T07:08:27.380Z,35.38
2022-12-03T07:10:54.735Z,36.50
2022-12-03T07:13:22.061Z,36.08
2022-12-03T07:15:48.769Z,34.47
2022-12-03T07:18:15.395Z,35.55
2022-12-03T07:20:42.124Z,37.58
2022-12-03T07:23:08.808Z,38.15
2022-12-03T07:25:35.468Z,36.05
2022-12-03T07:28:02.081Z,38.67
2022-12-03T07:30:29.132Z,37.95
2022-12-03T07:32:56.929Z,36.05
2022-12-03T07:35:23.523Z,35.35
2022-12-03T07:37:50.182Z,35.67
2022-12-03T07:40:16.953Z,35.78
2022-12-03T07:42:43.656Z,36.75
2022-12-03T07:45:10.607Z,34.85
2022-12-03T07:47:37.340Z,36.97
2022-12-03T07:50:04.167Z,34.10
2022-12-03T07:52:30.807Z,34.38
2022-12-03T07:54:57.483Z,34.35
2022-12-03T07:57:24.156Z,33.15
2022-12-03T07:59:50.862Z,33.60
2022-12-03T08:02:21.150Z,36.03
2022-12-03T08:04:48.600Z,34.67
2022-12-03T08:07:15.247Z,34.95
2022-12-03T08:09:42.736Z,33.05
2022-12-03T08:12:17.215Z,35.10
2022-12-03T08:14:44.635Z,33.63
2022-12-03T08:17:13.166Z,32.13
2022-12-03T08:19:45.251Z,33.22
2022-12-03T08:22:14.358Z,33.75
2022-12-03T08:24:41.456Z,32.20
2022-12-03T08:27:18.276Z,33.05
2022-12-03T08:29:46.152Z,33.10
2022-12-03T08:32:13.384Z,33.55
2022-12-03T08:34:44.218Z,35.58
2022-12-03T08:37:19.097Z,33.95
2022-12-03T08:39:50.809Z,31.63
2022-12-03T08:42:41.791Z,32.45
2022-12-03T08:45:32.700Z,30.30
2022-12-03T08:48:08.789Z,28.75
2022-12-03T08:50:42.797Z,27.63
2022-12-03T08:53:26.083Z,28.48
2022-12-03T08:55:54.549Z,26.58
2022-12-03T08:58:33.175Z,27.55
2022-12-03T09:01:12.350Z,28.42
2022-12-03T09:03:47.496Z,27.17
2022-12-03T09:06:14.351Z,26.52
2022-12-03T09:08:40.977Z,26.10
2022-12-03T09:11:07.738Z,26.75
2022-12-03T09:13:34.447Z,26.33
2022-12-03T09:16:01.188Z,26.90
2022-12-03T09:18:27.787Z,27.13
2022-12-03T09:20:54.427Z,25.60
2022-12-03T09:23:21.056Z,26.30
2022-12-03T09:25:47.764Z,24.83
2022-12-03T09:28:14.413Z,24.83
2022-12-03T09:30:41.131Z,24.42
2022-12-03T09:33:07.784Z,25.52
2022-12-03T09:35:34.449Z,26.10
2022-12-03T09:38:01.157Z,26.02
2022-12-03T09:40:29.179Z,24.40
2022-12-03T09:42:58.675Z,27.02
2022-12-03T09:45:25.668Z,25.77
2022-12-03T09:47:52.645Z,26.75
2022-12-03T09:50:23.159Z,27.17
2022-12-03T09:52:51.335Z,27.42
2022-12-03T09:55:22.465Z,26.42
2022-12-03T09:57:49.249Z,25.15
2022-12-03T10:00:19.256Z,25.60
2022-12-03T10:05:14.885Z,25.10
2022-12-03T10:07:42.474Z,26.23
2022-12-03T10:10:16.752Z,26.33
2022-12-03T10:12:43.905Z,25.30
2022-12-03T10:15:16.597Z,25.95
2022-12-03T10:17:44.359Z,24.67
2022-12-03T10:20:14.215Z,24.65
2022-12-03T10:22:41.125Z,25.60
2022-12-03T10:25:17.723Z,24.27
2022-12-03T10:28:06.400Z,23.65
2022-12-03T10:30:33.204Z,23.15
2022-12-03T10:33:17.324Z,23.98
2022-12-03T10:35:45.619Z,22.27
2022-12-03T10:38:18.389Z,20.33
2022-12-03T10:40:46.112Z,21.92
2022-12-03T10:43:24.444Z,22.25
2022-12-03T10:46:11.078Z,21.48
2022-12-03T10:48:38.435Z,18.40
2022-12-03T10:51:09.093Z,19.80
2022-12-03T10:53:38.974Z,17.92
2022-12-03T10:56:07.591Z,18.30
2022-12-03T10:58:36.703Z,18.67
2022-12-03T11:01:10.773Z,18.50
2022-12-03T11:03:37.673Z,17.25
2022-12-03T11:06:04.580Z,17.35
2022-12-03T11:08:35.746Z,17.92
2022-12-03T11:13:34.832Z,16.65
2022-12-03T11:16:03.501Z,17.35
2022-12-03T11:18:36.192Z,16.15
2022-12-03T11:21:07.245Z,16.65
2022-12-03T11:23:46.269Z,17.27
2022-12-03T11:26:28.911Z,16.27
2022-12-03T11:28:57.444Z,16.45
2022-12-03T11:31:48.043Z,15.80
2022-12-03T11:34:21.246Z,16.90
2022-12-03T11:37:09.628Z,17.15
2022-12-03T11:39:45.458Z,17.05
2022-12-03T11:42:28.580Z,15.30
2022-12-03T11:45:04.837Z,15.23
2022-12-03T11:47:33.938Z,15.38
2022-12-03T11:50:01.150Z,14.75
2022-12-03T11:52:40.082Z,15.75
2022-12-03T11:55:37.385Z,17.67
2022-12-03T11:58:16.498Z,21.88
2022-12-03T12:00:55.007Z,22.17
2022-12-03T12:03:28.024Z,22.55
2022-12-03T12:06:08.021Z,22.38
2022-12-03T12:08:36.858Z,23.73
2022-12-03T12:11:04.292Z,24.73
2022-12-03T12:13:30.880Z,22.98
2022-12-03T12:16:50.422Z,23.67
2022-12-03T12:19:35.604Z,24.40
2022-12-03T12:22:16.147Z,25.05
2022-12-03T12:24:50.844Z,25.05
2022-12-03T12:27:45.029Z,23.98
2022-12-03T12:30:18.237Z,23.85
2022-12-03T12:32:52.911Z,23.83
2022-12-03T12:35:28.183Z,24.05
2022-12-03T12:38:10.800Z,25.75
2022-12-03T12:40:40.162Z,23.75
2022-12-03T12:43:25.188Z,24.38
2022-12-03T12:45:54.478Z,24.23
2022-12-03T12:48:31.096Z,24.27
2022-12-03T12:51:14.596Z,24.20
2022-12-03T12:53:45.266Z,23.95
2022-12-03T12:56:21.995Z,25.42
2022-12-03T12:58:48.866Z,27.10
2022-12-03T13:01:21.406Z,26.95
2022-12-03T13:03:52.132Z,26.17
2022-12-03T13:06:27.075Z,28.08
2022-12-03T13:08:54.581Z,29.77
2022-12-03T13:11:42.061Z,28.92
2022-12-03T13:14:23.733Z,29.95
2022-12-03T13:16:56.055Z,34.60
2022-12-03T13:19:28.544Z,34.10
2022-12-03T13:21:57.787Z,33.70
2022-12-03T13:24:36.887Z,35.10
2022-12-03T13:27:18.521Z,32.47
2022-12-03T13:29:49.269Z,31.33
2022-12-03T13:32:19.738Z,32.05
2022-12-03T13:34:47.665Z,32.75
2022-12-03T13:37:22.363Z,33.92
2022-12-03T13:39:51.434Z,32.85
2022-12-03T13:42:38.962Z,32.38
2022-12-03T13:45:14.940Z,32.22
2022-12-03T13:47:56.553Z,32.47
2022-12-03T13:50:45.105Z,33.70
2022-12-03T13:53:11.749Z,36.55
2022-12-03T13:55:42.949Z,38.47
2022-12-03T13:58:09.610Z,36.13
2022-12-03T14:00:36.479Z,37.33
2022-12-03T14:03:03.366Z,37.50
2022-12-03T14:05:30.010Z,37.72
2022-12-03T14:08:02.129Z,38.92
2022-12-03T14:10:29.851Z,37.40
2022-12-03T14:12:57.189Z,39.63
2022-12-03T14:15:24.931Z,39.65
2022-12-03T14:17:51.609Z,36.42
2022-12-03T14:20:19.177Z,38.97
2022-12-03T14:22:45.916Z,37.90
2022-12-03T14:25:12.594Z,39.78
2022-12-03T14:27:39.246Z,38.55
2022-12-03T14:30:06.657Z,38.00
2022-12-03T14:32:33.442Z,38.30
2022-12-03T14:35:01.948Z,37.67
2022-12-03T14:37:31.882Z,37.72
2022-12-03T14:39:58.496Z,35.55
2022-12-03T14:42:25.263Z,35.25
2022-12-03T14:44:52.342Z,35.35
2022-12-03T14:47:24.339Z,37.67
2022-12-03T14:49:52.434Z,38.50
2022-12-03T14:52:19.589Z,37.10
2022-12-03T14:54:46.496Z,38.53
2022-12-03T14:57:15.376Z,37.83
2022-12-03T14:59:43.657Z,38.72
2022-12-03T15:02:11.467Z,37.30
2022-12-03T15:04:39.852Z,37.35
2022-12-03T15:07:07.056Z,37.63
2022-12-03T15:09:34.200Z,38.58
2022-12-03T15:12:03.287Z,38.63
2022-12-03T15:14:30.019Z,38.53
2022-12-03T15:16:56.676Z,38.72
2022-12-03T15:19:23.295Z,37.05
2022-12-03T15:21:50.011Z,38.83
2022-12-03T15:24:17.104Z,38.75
2022-12-03T15:26:43.795Z,38.72
2022-12-03T15:29:11.771Z,37.20
2022-12-03T15:31:38.449Z,38.65
2022-12-03T15:34:05.400Z,39.38
2022-12-03T15:36:32.047Z,39.55
2022-12-03T15:38:58.746Z,36.75
2022-12-03T15:41:29.194Z,39.60
2022-12-03T15:44:01.623Z,38.45
2022-12-03T15:46:28.779Z,39.17
2022-12-03T15:48:55.865Z,38.90
2022-12-03T15:51:23.927Z,37.80
2022-12-03T15:53:51.103Z,36.97
2022-12-03T15:56:17.834Z,37.60
2022-12-03T15:58:44.552Z,37.17
2022-12-03T16:01:13.635Z,35.47
2022-12-03T16:03:41.282Z,34.95
2022-12-03T16:06:08.004Z,32.83
2022-12-03T16:08:34.642Z,37.75
2022-12-03T16:11:01.318Z,39.42
2022-12-03T16:13:28.002Z,40.65
2022-12-03T16:15:54.800Z,40.03
2022-12-03T16:18:21.565Z,40.85
2022-12-03T16:20:48.354Z,42.88
2022-12-03T16:23:14.967Z,43.25
2022-12-03T16:25:41.694Z,41.72
2022-12-03T16:28:08.440Z,41.28
2022-12-03T16:30:35.966Z,43.58
2022-12-03T16:33:02.785Z,42.85
2022-12-03T16:35:29.492Z,42.97
2022-12-03T16:37:56.126Z,41.20
2022-12-03T16:40:22.874Z,42.17
2022-12-03T16:42:49.568Z,43.50
2022-12-03T16:45:36.717Z,42.20
2022-12-03T16:48:03.635Z,39.42
2022-12-03T16:50:30.637Z,40.25
2022-12-03T16:52:57.894Z,38.60
2022-12-03T16:55:24.806Z,39.10
2022-12-03T16:57:51.475Z,36.22
2022-12-03T17:00:18.570Z,38.80
2022-12-03T17:02:45.392Z,38.75
2022-12-03T17:05:12.109Z,39.28
2022-12-03T17:07:38.800Z,39.60
2022-12-03T17:10:06.300Z,39.45
2022-12-03T17:12:54.133Z,38.88
2022-12-03T17:15:19.701Z,39.25
2022-12-03T17:17:46.453Z,37.17
2022-12-03T17:20:14.776Z,37.10
2022-12-03T17:22:41.797Z,40.00
2022-12-03T17:25:09.597Z,37.17
2022-12-03T17:27:42.056Z,37.55
2022-12-03T17:30:13.551Z,39.33
2022-12-03T17:32:40.327Z,39.10
2022-12-03T17:35:08.005Z,38.92
2022-12-03T17:37:34.782Z,40.47
2022-12-03T17:40:01.592Z,39.17
2022-12-03T17:42:28.224Z,40.42
2022-12-03T17:44:54.888Z,40.08
2022-12-03T17:47:24.297Z,41.00
2022-12-03T17:49:51.019Z,38.28
2022-12-03T17:52:17.686Z,38.58
2022-12-03T17:55:09.104Z,38.10
2022-12-03T17:57:31.067Z,41.33
2022-12-03T17:59:57.757Z,40.90
2022-12-03T18:02:24.465Z,40.95
2022-12-03T18:04:51.075Z,41.95
2022-12-03T18:07:17.784Z,41.35
2022-12-03T18:09:44.413Z,40.35
2022-12-03T18:12:11.191Z,39.17
2022-12-03T18:14:37.860Z,42.42
2022-12-03T18:17:04.499Z,42.50
2022-12-03T18:19:31.195Z,41.15
2022-12-03T18:21:57.874Z,40.47
2022-12-03T18:24:25.336Z,42.03
2022-12-03T18:26:52.022Z,39.47
2022-12-03T18:29:18.663Z,41.63
2022-12-03T18:31:45.480Z,43.38
2022-12-03T18:34:12.254Z,42.28
2022-12-03T18:36:39.809Z,41.25
2022-12-03T18:39:09.288Z,40.85
2022-12-03T18:41:36.599Z,40.80
2022-12-03T18:44:09.191Z,42.00
2022-12-03T18:49:22.707Z,43.78
2022-12-03T18:51:52.100Z,40.97
2022-12-03T18:54:22.614Z,42.85
2022-12-03T18:56:49.354Z,42.92
2022-12-03T18:59:15.965Z,44.03
2022-12-03T19:01:42.593Z,45.13
2022-12-03T19:04:10.551Z,43.97
2022-12-03T19:06:37.190Z,44.75
2022-12-03T19:09:04.746Z,44.40
2022-12-03T19:11:31.560Z,45.03
2022-12-03T19:13:59.119Z,43.60
2022-12-03T19:16:26.255Z,45.42
2022-12-03T19:18:53.994Z,46.33
2022-12-03T19:21:21.353Z,44.47
2022-12-03T19:24:22.221Z,44.47
2022-12-03T19:26:35.021Z,43.90
2022-12-03T19:29:01.752Z,45.80
2022-12-03T19:31:30.731Z,44.15
2022-12-03T19:33:57.414Z,45.72
2022-12-03T19:36:26.889Z,45.95
2022-12-03T19:38:57.323Z,45.72
2022-12-03T19:41:30.631Z,44.53
2022-12-03T19:43:57.715Z,43.97
2022-12-03T19:46:26.495Z,44.83
2022-12-03T19:48:54.028Z,46.05
2022-12-03T19:51:34.283Z,47.15
2022-12-03T19:54:02.257Z,46.47
2022-12-03T19:56:30.496Z,45.55
2022-12-03T19:58:57.803Z,46.70
2022-12-03T20:01:27.765Z,43.97
2022-12-03T20:06:25.035Z,42.30
2022-12-03T20:08:58.832Z,45.50
2022-12-03T20:11:28.376Z,43.05
2022-12-03T20:13:57.861Z,43.55
2022-12-03T20:16:26.034Z,42.25
2022-12-03T20:18:56.752Z,42.30
2022-12-03T20:21:23.828Z,43.65
2022-12-03T20:23:50.657Z,44.75
2022-12-03T20:26:19.620Z,46.42
2022-12-03T20:28:50.074Z,44.47
2022-12-03T20:31:22.256Z,44.53
2022-12-03T20:33:51.349Z,47.03
2022-12-03T20:36:20.872Z,49.05
2022-12-03T20:38:47.602Z,50.65
2022-12-03T20:41:17.263Z,50.72
2022-12-03T20:43:44.386Z,52.72
2022-12-03T20:46:20.097Z,54.13
2022-12-03T20:48:47.351Z,54.85
2022-12-03T20:51:16.992Z,56.35
2022-12-03T20:53:44.958Z,58.42
2022-12-03T20:56:18.650Z,61.40
2022-12-03T20:58:45.395Z,59.35
2022-12-03T21:01:17.106Z,60.30
2022-12-03T21:03:45.010Z,61.30
2022-12-03T21:06:12.873Z,60.97
2022-12-03T21:08:42.238Z,62.22
2022-12-03T21:11:18.629Z,60.22
2022-12-03T21:13:46.359Z,58.65
2022-12-03T21:16:15.835Z,60.00
2022-12-03T21:18:43.189Z,59.42
2022-12-03T21:21:11.874Z,60.45
2022-12-03T21:23:38.593Z,58.30
2022-12-03T21:26:16.104Z,59.35
2022-12-03T21:28:45.151Z,57.17
2022-12-03T21:31:17.953Z,55.95
2022-12-03T21:33:44.644Z,55.85
2022-12-03T21:36:13.219Z,57.42
2022-12-03T21:38:41.313Z,57.20
2022-12-03T21:41:08.089Z,61.80
2022-12-03T21:43:34.859Z,57.63
2022-12-03T21:47:09.263Z,57.67
2022-12-03T21:48:53.685Z,60.60
2022-12-03T21:51:20.341Z,62.22
2022-12-03T21:53:47.459Z,61.60
2022-12-03T21:56:19.568Z,60.55
2022-12-03T21:58:46.644Z,60.10
2022-12-03T22:01:22.576Z,57.95
2022-12-03T22:03:49.971Z,58.05
2022-12-03T22:06:17.376Z,63.58
2022-12-03T22:08:44.210Z,60.45
2022-12-03T22:11:17.122Z,60.80
2022-12-03T22:13:44.015Z,62.08
2022-12-03T22:16:13.307Z,59.28
2022-12-03T22:18:40.394Z,58.17
2022-12-03T22:21:09.739Z,60.33
2022-12-03T22:23:36.904Z,61.47
2022-12-03T22:26:13.822Z,57.50
2022-12-03T22:28:48.848Z,58.50
2022-12-03T22:31:17.179Z,58.55
2022-12-03T22:33:48.027Z,57.85
2022-12-03T22:36:20.562Z,57.78
2022-12-03T22:38:49.756Z,56.10
2022-12-03T22:41:16.783Z,55.10
2022-12-03T22:43:44.640Z,54.72
2022-12-03T22:46:14.301Z,54.75
2022-12-03T22:48:42.438Z,54.53
2022-12-03T22:51:22.230Z,55.70
2022-12-03T22:53:54.355Z,56.22
2022-12-03T22:56:22.386Z,56.63
2022-12-03T22:58:49.287Z,55.42
2022-12-03T23:01:26.009Z,52.50
2022-12-03T23:03:52.875Z,54.00
2022-12-03T23:06:20.627Z,55.75
2022-12-03T23:08:47.766Z,54.67
2022-12-03T23:11:14.800Z,52.83
2022-12-03T23:13:41.458Z,53.53
2022-12-03T23:16:13.589Z,49.97
2022-12-03T23:18:40.467Z,51.50
2022-12-03T23:21:07.727Z,50.47
2022-12-03T23:23:34.408Z,51.40
2022-12-03T23:26:07.495Z,51.22
2022-12-03T23:28:36.535Z,50.92
2022-12-03T23:31:04.033Z,49.45
2022-12-03T23:33:36.677Z,51.05
2022-12-03T23:36:06.494Z,50.58
2022-12-03T23:38:33.166Z,50.88
2022-12-03T23:41:07.934Z,50.17
2022-12-03T23:43:34.997Z,54.85
2022-12-03T23:46:09.682Z,51.38
2022-12-03T23:48:36.813Z,52.72
2022-12-03T23:51:24.395Z,50.22
2022-12-03T23:53:53.181Z,48.25
2022-12-03T23:56:23.353Z,47.80
